Terminal Aerodrome Forecast
Issued by NWS

Home | Current Version | Previous Version | Graphics & Text | Print | Product List | Glossary On
Versions: 1 2 3 4 5 6 7 8 9 10 11 12 13 14 15 16 17 18 19 20 21 22 23 24 25 26 27
317
FTUS43 KTOP 262045 AAA
TAFFOE
TAF AMD
KFOE 262045Z 2621/2718 VRB04KT P6SM BKN015
      TEMPO 2621/2701 SCT020 BKN120
     FM270100 03008KT P6SM -RA OVC040
     FM270300 01008KT 4SM -RA BR OVC006
     FM271100 35008KT 3SM BR BKN006
     FM271600 35008KT P6SM BKN010=

USA.gov is the U.S. government's official web portal to all federal, state and local government web resources and services.